createdAt,value
2023-04-15T00:00:44.147Z,-83
2023-04-15T00:01:47.135Z,-84
2023-04-15T00:02:50.100Z,-84
2023-04-15T00:03:55.011Z,-83
2023-04-15T00:04:58.011Z,-84
2023-04-15T00:06:01.239Z,-84
2023-04-15T00:07:04.441Z,-84
2023-04-15T00:08:07.799Z,-84
2023-04-15T00:09:10.595Z,-83
2023-04-15T00:10:13.448Z,-83
2023-04-15T00:11:16.514Z,-83
2023-04-15T00:12:19.320Z,-84
2023-04-15T00:13:22.210Z,-84
2023-04-15T00:14:25.048Z,-84
2023-04-15T00:15:28.365Z,-84
2023-04-15T00:16:31.251Z,-83
2023-04-15T00:17:34.409Z,-84
2023-04-15T00:18:38.692Z,-84
2023-04-15T00:19:42.146Z,-84
2023-04-15T00:20:45.007Z,-83
2023-04-15T00:21:47.895Z,-84
2023-04-15T00:22:50.863Z,-84
2023-04-15T00:23:55.083Z,-83
2023-04-15T00:24:57.903Z,-83
2023-04-15T00:26:00.754Z,-84
2023-04-15T00:27:03.686Z,-84
2023-04-15T00:28:06.577Z,-84
2023-04-15T00:29:09.540Z,-85
2023-04-15T00:30:13.120Z,-84
2023-04-15T00:31:16.723Z,-84
2023-04-15T00:32:19.786Z,-83
2023-04-15T00:33:22.645Z,-84
2023-04-15T00:34:25.485Z,-84
2023-04-15T00:35:28.330Z,-84
2023-04-15T00:36:31.152Z,-83
2023-04-15T00:37:34.006Z,-84
2023-04-15T00:38:40.037Z,-84
2023-04-15T00:39:43.148Z,-85
2023-04-15T00:40:46.235Z,-83
2023-04-15T00:41:49.807Z,-84
2023-04-15T00:42:53.702Z,-84
2023-04-15T00:43:56.630Z,-85
2023-04-15T00:44:59.475Z,-84
2023-04-15T00:46:03.646Z,-85
2023-04-15T00:47:07.383Z,-84
2023-04-15T00:48:10.853Z,-84
2023-04-15T00:49:14.464Z,-84
2023-04-15T00:50:17.487Z,-84
2023-04-15T00:51:20.404Z,-84
2023-04-15T00:52:23.421Z,-84
2023-04-15T00:53:26.271Z,-84
2023-04-15T00:54:29.203Z,-84
2023-04-15T00:55:35.203Z,-84
2023-04-15T00:56:42.257Z,-84
2023-04-15T00:57:46.023Z,-84
2023-04-15T00:58:49.546Z,-84
2023-04-15T00:59:54.045Z,-83
2023-04-15T01:00:58.620Z,-84
2023-04-15T01:02:01.720Z,-83
2023-04-15T01:03:04.878Z,-82
2023-04-15T01:04:08.373Z,-84
2023-04-15T01:05:11.367Z,-85
2023-04-15T01:06:15.405Z,-84
2023-04-15T01:07:18.720Z,-83
2023-04-15T01:08:21.550Z,-84
2023-04-15T01:09:24.516Z,-85
2023-04-15T01:10:27.490Z,-84
2023-04-15T01:11:32.013Z,-84
2023-04-15T01:12:35.607Z,-83
2023-04-15T01:13:38.815Z,-84
2023-04-15T01:14:41.709Z,-83
2023-04-15T01:15:45.366Z,-84
2023-04-15T01:16:48.215Z,-83
2023-04-15T01:17:51.573Z,-84
2023-04-15T01:18:54.651Z,-84
2023-04-15T01:20:01.292Z,-84
2023-04-15T01:21:05.171Z,-84
2023-04-15T01:22:08.180Z,-85
2023-04-15T01:23:11.416Z,-85
2023-04-15T01:24:17.693Z,-85
2023-04-15T01:25:23.875Z,-82
2023-04-15T01:26:27.201Z,-82
2023-04-15T01:27:30.272Z,-87
2023-04-15T01:28:34.318Z,-83
2023-04-15T01:29:40.064Z,-83
2023-04-15T01:30:42.932Z,-83
2023-04-15T01:31:56.474Z,-83
2023-04-15T01:32:59.388Z,-85
2023-04-15T01:34:02.706Z,-85
2023-04-15T01:35:05.757Z,-85
2023-04-15T01:36:11.270Z,-85
2023-04-15T01:37:14.260Z,-85
2023-04-15T01:38:17.538Z,-84
2023-04-15T01:39:20.732Z,-85
2023-04-15T01:40:24.104Z,-86
2023-04-15T01:41:28.685Z,-85
2023-04-15T01:42:31.530Z,-85
2023-04-15T01:43:34.404Z,-85
2023-04-15T01:44:37.749Z,-85
2023-04-15T01:45:40.607Z,-85
2023-04-15T01:46:43.573Z,-85
2023-04-15T01:47:46.669Z,-85
2023-04-15T01:48:49.571Z,-85
2023-04-15T01:49:52.924Z,-85
2023-04-15T01:50:59.140Z,-83
2023-04-15T01:52:02.005Z,-82
2023-04-15T01:53:05.202Z,-84
2023-04-15T01:54:08.321Z,-84
2023-04-15T01:55:11.793Z,-84
2023-04-15T01:56:16.815Z,-84
2023-04-15T01:57:19.730Z,-84
2023-04-15T01:58:23.807Z,-85
2023-04-15T01:59:27.041Z,-84
2023-04-15T02:00:30.069Z,-84
2023-04-15T02:01:33.373Z,-84
2023-04-15T02:02:37.296Z,-86
2023-04-15T02:03:40.827Z,-84
2023-04-15T02:04:43.900Z,-85
2023-04-15T02:05:46.798Z,-84
2023-04-15T02:06:49.996Z,-84
2023-04-15T02:07:53.494Z,-84
2023-04-15T02:08:56.359Z,-84
2023-04-15T02:09:59.773Z,-84
2023-04-15T02:11:02.646Z,-84
2023-04-15T02:12:05.676Z,-84
2023-04-15T02:13:08.679Z,-84
2023-04-15T02:14:11.683Z,-84
2023-04-15T02:15:14.561Z,-84
2023-04-15T02:16:19.041Z,-84
2023-04-15T02:17:22.106Z,-84
2023-04-15T02:18:25.053Z,-83
2023-04-15T02:19:27.920Z,-84
2023-04-15T02:20:32.117Z,-84
2023-04-15T02:21:37.657Z,-83
2023-04-15T02:22:40.599Z,-85
2023-04-15T02:23:43.542Z,-84
2023-04-15T02:24:47.580Z,-84
2023-04-15T02:25:53.936Z,-84
2023-04-15T02:26:57.454Z,-84
2023-04-15T02:28:00.360Z,-84
2023-04-15T02:29:03.278Z,-84
2023-04-15T02:30:06.675Z,-84
2023-04-15T02:31:10.914Z,-84
2023-04-15T02:32:14.637Z,-84
2023-04-15T02:33:17.808Z,-83
2023-04-15T02:34:20.697Z,-84
2023-04-15T02:35:23.938Z,-84
2023-04-15T02:36:28.361Z,-84
2023-04-15T02:37:32.434Z,-84
2023-04-15T02:38:35.273Z,-83
2023-04-15T02:39:38.200Z,-85
2023-04-15T02:40:41.201Z,-84
2023-04-15T02:41:45.188Z,-84
2023-04-15T02:42:48.075Z,-84
2023-04-15T02:43:50.869Z,-85
2023-04-15T02:44:53.715Z,-85
2023-04-15T02:45:56.617Z,-83
2023-04-15T02:47:00.222Z,-84
2023-04-15T02:48:07.308Z,-83
2023-04-15T02:49:10.278Z,-84
2023-04-15T02:50:14.567Z,-83
2023-04-15T02:51:23.723Z,-84
2023-04-15T02:52:26.623Z,-83
2023-04-15T02:53:29.461Z,-83
2023-04-15T02:54:33.867Z,-84
2023-04-15T02:55:36.701Z,-83
2023-04-15T02:56:39.494Z,-83
2023-04-15T02:57:42.725Z,-84
2023-04-15T02:58:46.984Z,-84
2023-04-15T02:59:49.813Z,-84
2023-04-15T03:00:53.198Z,-84
2023-04-15T03:01:58.005Z,-84
2023-04-15T03:03:07.917Z,-84
2023-04-15T03:04:10.996Z,-84
2023-04-15T03:05:15.313Z,-84
2023-04-15T03:06:18.379Z,-84
2023-04-15T03:07:21.179Z,-84
2023-04-15T03:08:24.123Z,-84
2023-04-15T03:09:27.133Z,-84
2023-04-15T03:10:29.998Z,-84
2023-04-15T03:11:36.063Z,-84
2023-04-15T03:12:39.326Z,-85
2023-04-15T03:13:43.167Z,-84
2023-04-15T03:14:45.995Z,-84
2023-04-15T03:15:48.971Z,-83
2023-04-15T03:16:53.193Z,-84
2023-04-15T03:17:56.129Z,-83
2023-04-15T03:18:59.173Z,-83
2023-04-15T03:20:05.426Z,-84
2023-04-15T03:21:08.610Z,-84
2023-04-15T03:22:11.611Z,-84
2023-04-15T03:23:14.500Z,-83
2023-04-15T03:24:17.421Z,-84
2023-04-15T03:25:20.243Z,-83
2023-04-15T03:26:31.076Z,-84
2023-04-15T03:27:33.978Z,-84
2023-04-15T03:28:36.865Z,-83
2023-04-15T03:29:39.671Z,-84
2023-04-15T03:30:43.065Z,-84
2023-04-15T03:31:45.912Z,-84
2023-04-15T03:32:48.743Z,-84
2023-04-15T03:33:51.904Z,-84
2023-04-15T03:34:54.761Z,-84
2023-04-15T03:35:58.109Z,-84
2023-04-15T03:37:00.942Z,-84
2023-04-15T03:38:03.806Z,-84
2023-04-15T03:39:06.857Z,-84
2023-04-15T03:40:11.044Z,-84
2023-04-15T03:41:14.387Z,-84
2023-04-15T03:42:17.202Z,-84
2023-04-15T03:43:20.109Z,-84
2023-04-15T03:44:22.932Z,-84
2023-04-15T03:45:25.986Z,-83
2023-04-15T03:46:29.176Z,-84
2023-04-15T03:47:32.374Z,-84
2023-04-15T03:48:35.200Z,-84
2023-04-15T03:49:38.572Z,-84
2023-04-15T03:50:41.450Z,-84
2023-04-15T03:51:44.261Z,-84
2023-04-15T03:52:48.642Z,-84
2023-04-15T03:53:52.553Z,-84
2023-04-15T03:54:55.390Z,-83
2023-04-15T03:55:58.263Z,-84
2023-04-15T03:57:01.101Z,-84
2023-04-15T03:58:03.913Z,-84
2023-04-15T03:59:06.796Z,-84
2023-04-15T04:00:14.161Z,-84
2023-04-15T04:01:17.798Z,-84
2023-04-15T04:02:20.753Z,-84
2023-04-15T04:03:23.882Z,-84
2023-04-15T04:04:27.294Z,-84
2023-04-15T04:05:30.241Z,-85
2023-04-15T04:06:33.218Z,-86
2023-04-15T04:07:36.103Z,-85
2023-04-15T04:08:39.021Z,-84
2023-04-15T04:09:43.750Z,-84
2023-04-15T04:10:47.370Z,-84
2023-04-15T04:11:50.182Z,-84
2023-04-15T04:12:53.295Z,-84
2023-04-15T04:13:56.288Z,-84
2023-04-15T04:14:59.185Z,-84
2023-04-15T04:16:02.214Z,-84
2023-04-15T04:17:05.185Z,-85
2023-04-15T04:18:08.626Z,-84
2023-04-15T04:19:12.223Z,-84
2023-04-15T04:20:15.098Z,-84
2023-04-15T04:21:18.339Z,-84
2023-04-15T04:22:25.336Z,-84
2023-04-15T04:23:28.272Z,-84
2023-04-15T04:24:31.126Z,-84
2023-04-15T04:25:34.447Z,-84
2023-04-15T04:26:37.312Z,-84
2023-04-15T04:27:40.268Z,-84
2023-04-15T04:28:43.344Z,-84
2023-04-15T04:29:48.831Z,-84
2023-04-15T04:30:51.952Z,-84
2023-04-15T04:31:54.783Z,-84
2023-04-15T04:32:57.700Z,-84
2023-04-15T04:34:00.535Z,-84
2023-04-15T04:35:03.382Z,-84
2023-04-15T04:36:06.878Z,-84
2023-04-15T04:37:09.680Z,-85
2023-04-15T04:38:12.761Z,-83
2023-04-15T04:39:15.590Z,-84
2023-04-15T04:40:18.522Z,-84
2023-04-15T04:41:21.425Z,-84
2023-04-15T04:42:24.363Z,-83
2023-04-15T04:43:27.459Z,-84
2023-04-15T04:44:30.312Z,-84
2023-04-15T04:45:33.249Z,-84
2023-04-15T04:46:36.080Z,-85
2023-04-15T04:47:38.962Z,-84
2023-04-15T04:48:42.381Z,-84
2023-04-15T04:49:45.305Z,-84
2023-04-15T04:50:48.399Z,-84
2023-04-15T04:51:51.340Z,-84
2023-04-15T04:52:54.240Z,-83
2023-04-15T04:53:57.905Z,-83
2023-04-15T04:55:00.825Z,-85
2023-04-15T04:56:03.647Z,-84
2023-04-15T04:57:06.522Z,-84
2023-04-15T04:58:09.372Z,-83
2023-04-15T04:59:12.208Z,-84
2023-04-15T05:00:15.331Z,-84
2023-04-15T05:01:18.691Z,-84
2023-04-15T05:02:21.901Z,-84
2023-04-15T05:03:24.897Z,-86
2023-04-15T05:04:27.835Z,-84
2023-04-15T05:05:30.703Z,-84
2023-04-15T05:06:33.994Z,-83
2023-04-15T05:07:36.905Z,-83
2023-04-15T05:08:40.479Z,-83
2023-04-15T05:09:43.672Z,-84
2023-04-15T05:10:46.836Z,-84
2023-04-15T05:11:49.742Z,-84
2023-04-15T05:12:53.287Z,-83
2023-04-15T05:13:56.666Z,-84
2023-04-15T05:14:59.568Z,-84
2023-04-15T05:16:02.685Z,-84
2023-04-15T05:17:05.614Z,-84
2023-04-15T05:18:08.566Z,-84
2023-04-15T05:19:11.422Z,-83
2023-04-15T05:20:15.036Z,-84
2023-04-15T05:21:17.890Z,-84
2023-04-15T05:22:20.843Z,-84
2023-04-15T05:23:23.734Z,-84
2023-04-15T05:24:26.697Z,-84
2023-04-15T05:25:29.579Z,-85
2023-04-15T05:26:32.815Z,-85
2023-04-15T05:27:35.613Z,-84
2023-04-15T05:28:38.538Z,-84
2023-04-15T05:29:41.341Z,-85
2023-04-15T05:30:44.418Z,-85
2023-04-15T05:31:47.446Z,-84
2023-04-15T05:32:50.394Z,-85
2023-04-15T05:33:53.399Z,-84
2023-04-15T05:34:56.195Z,-85
2023-04-15T05:35:59.018Z,-85
2023-04-15T05:37:02.029Z,-84
2023-04-15T05:38:05.019Z,-84
2023-04-15T05:39:08.477Z,-85
2023-04-15T05:40:11.885Z,-85
2023-04-15T05:41:19.605Z,-85
2023-04-15T05:42:22.814Z,-85
2023-04-15T05:43:25.900Z,-85
2023-04-15T05:44:28.698Z,-85
2023-04-15T05:45:31.531Z,-85
2023-04-15T05:46:34.463Z,-85
2023-04-15T05:47:38.609Z,-84
2023-04-15T05:48:41.621Z,-85
2023-04-15T05:49:44.498Z,-84
2023-04-15T05:50:47.375Z,-84
2023-04-15T05:51:50.343Z,-84
2023-04-15T05:52:53.172Z,-84
2023-04-15T05:53:56.012Z,-85
2023-04-15T05:54:58.949Z,-85
2023-04-15T05:56:01.993Z,-85
2023-04-15T05:57:05.277Z,-85
2023-04-15T05:58:08.356Z,-85
2023-04-15T05:59:11.205Z,-84
2023-04-15T06:00:14.579Z,-85
2023-04-15T06:01:17.490Z,-86
2023-04-15T06:02:20.704Z,-85
2023-04-15T06:03:24.306Z,-85
2023-04-15T06:04:27.303Z,-85
2023-04-15T06:05:30.604Z,-85
2023-04-15T06:06:33.923Z,-85
2023-04-15T06:07:38.202Z,-85
2023-04-15T06:08:41.024Z,-85
2023-04-15T06:09:43.856Z,-85
2023-04-15T06:10:47.413Z,-85
2023-04-15T06:11:50.310Z,-85
2023-04-15T06:12:54.546Z,-85
2023-04-15T06:13:57.892Z,-85
2023-04-15T06:15:01.105Z,-86
2023-04-15T06:16:03.980Z,-85
2023-04-15T06:17:06.867Z,-85
2023-04-15T06:18:09.776Z,-85
2023-04-15T06:19:13.632Z,-85
2023-04-15T06:20:16.548Z,-85
2023-04-15T06:21:19.557Z,-85
2023-04-15T06:22:26.027Z,-85
2023-04-15T06:23:28.928Z,-85
2023-04-15T06:24:32.778Z,-85
2023-04-15T06:25:35.609Z,-85
2023-04-15T06:26:38.391Z,-85
2023-04-15T06:27:41.275Z,-85
2023-04-15T06:28:44.082Z,-84
2023-04-15T06:29:46.930Z,-84
2023-04-15T06:30:50.004Z,-84
2023-04-15T06:31:53.140Z,-85
2023-04-15T06:32:57.299Z,-86
2023-04-15T06:34:00.153Z,-85
2023-04-15T06:35:03.034Z,-84
2023-04-15T06:36:05.964Z,-84
2023-04-15T06:37:08.877Z,-84
2023-04-15T06:38:11.855Z,-85
2023-04-15T06:39:14.934Z,-85
2023-04-15T06:40:18.364Z,-84
2023-04-15T06:41:21.313Z,-84
2023-04-15T06:42:24.419Z,-85
2023-04-15T06:43:27.244Z,-84
2023-04-15T06:44:33.282Z,-85
2023-04-15T06:45:36.646Z,-84
2023-04-15T06:46:39.527Z,-85
2023-04-15T06:47:43.101Z,-84
2023-04-15T06:48:46.047Z,-85
2023-04-15T06:49:48.916Z,-85
2023-04-15T06:50:52.030Z,-85
2023-04-15T06:51:54.850Z,-84
2023-04-15T06:52:58.568Z,-85
2023-04-15T06:54:01.413Z,-85
2023-04-15T06:55:04.567Z,-85
2023-04-15T06:56:08.632Z,-85
2023-04-15T06:57:11.790Z,-85
2023-04-15T06:58:14.648Z,-85
2023-04-15T06:59:17.537Z,-84
2023-04-15T07:00:20.672Z,-84
2023-04-15T07:01:23.838Z,-85
2023-04-15T07:02:27.270Z,-85
2023-04-15T07:03:32.134Z,-85
2023-04-15T07:04:35.591Z,-85
2023-04-15T07:05:39.745Z,-84
2023-04-15T07:06:43.396Z,-85
2023-04-15T07:07:46.636Z,-85
2023-04-15T07:08:50.053Z,-85
2023-04-15T07:09:54.981Z,-85
2023-04-15T07:10:58.439Z,-84
2023-04-15T07:12:01.377Z,-85
2023-04-15T07:13:04.267Z,-85
2023-04-15T07:14:07.972Z,-85
2023-04-15T07:15:11.467Z,-85
2023-04-15T07:16:14.528Z,-88
2023-04-15T07:17:17.815Z,-85
2023-04-15T07:18:20.645Z,-85
2023-04-15T07:19:23.467Z,-85
2023-04-15T07:20:26.477Z,-86
2023-04-15T07:21:29.409Z,-85
2023-04-15T07:22:32.422Z,-85
2023-04-15T07:23:35.249Z,-85
2023-04-15T07:24:38.108Z,-85
2023-04-15T07:25:40.985Z,-85
2023-04-15T07:26:43.882Z,-85
2023-04-15T07:27:47.263Z,-85
2023-04-15T07:28:50.879Z,-85
2023-04-15T07:29:53.721Z,-85
2023-04-15T07:30:58.542Z,-85
2023-04-15T07:32:01.322Z,-85
2023-04-15T07:33:04.972Z,-85
2023-04-15T07:34:08.560Z,-85
2023-04-15T07:35:12.026Z,-85
2023-04-15T07:36:15.292Z,-85
2023-04-15T07:37:21.238Z,-85
2023-04-15T07:38:24.629Z,-85
2023-04-15T07:39:27.728Z,-85
2023-04-15T07:40:30.648Z,-85
2023-04-15T07:41:33.454Z,-85
2023-04-15T07:42:38.059Z,-85
2023-04-15T07:43:41.785Z,-86
2023-04-15T07:44:44.655Z,-85
2023-04-15T07:45:47.516Z,-85
2023-04-15T07:46:50.376Z,-84
2023-04-15T07:47:53.332Z,-85
2023-04-15T07:48:56.175Z,-85
2023-04-15T07:49:59.025Z,-86
2023-04-15T07:51:02.214Z,-84
2023-04-15T07:52:05.242Z,-85
2023-04-15T07:53:08.829Z,-85
2023-04-15T07:54:11.756Z,-85
2023-04-15T07:55:14.625Z,-85
2023-04-15T07:56:17.726Z,-84
2023-04-15T07:57:20.636Z,-84
2023-04-15T07:58:23.581Z,-85
2023-04-15T07:59:26.408Z,-84
2023-04-15T08:00:29.497Z,-84
2023-04-15T08:01:32.870Z,-85
2023-04-15T08:02:38.174Z,-85
2023-04-15T08:03:42.991Z,-83
2023-04-15T08:04:46.266Z,-85
2023-04-15T08:05:49.324Z,-84
2023-04-15T08:06:52.241Z,-84
2023-04-15T08:07:55.068Z,-84
2023-04-15T08:08:58.764Z,-85
2023-04-15T08:10:01.811Z,-84
2023-04-15T08:11:04.688Z,-84
2023-04-15T08:12:09.144Z,-84
2023-04-15T08:13:12.196Z,-84
2023-04-15T08:14:15.065Z,-85
2023-04-15T08:15:18.185Z,-84
2023-04-15T08:16:23.819Z,-85
2023-04-15T08:17:26.987Z,-84
2023-04-15T08:18:29.867Z,-85
2023-04-15T08:19:32.809Z,-85
2023-04-15T08:20:35.751Z,-84
2023-04-15T08:21:38.620Z,-85
2023-04-15T08:22:42.236Z,-84
2023-04-15T08:23:46.055Z,-84
2023-04-15T08:24:48.913Z,-84
2023-04-15T08:25:52.081Z,-85
2023-04-15T08:26:55.334Z,-85
2023-04-15T08:27:59.058Z,-85
2023-04-15T08:29:02.259Z,-85
2023-04-15T08:30:06.076Z,-84
2023-04-15T08:31:10.071Z,-85
2023-04-15T08:32:13.017Z,-84
2023-04-15T08:33:15.930Z,-84
2023-04-15T08:34:19.459Z,-84
2023-04-15T08:35:22.525Z,-84
2023-04-15T08:36:25.417Z,-84
2023-04-15T08:37:28.245Z,-84
2023-04-15T08:38:31.063Z,-85
2023-04-15T08:39:34.795Z,-84
2023-04-15T08:40:43.570Z,-85
2023-04-15T08:41:53.162Z,-85
2023-04-15T08:42:59.372Z,-84
2023-04-15T08:44:07.023Z,-84
2023-04-15T08:45:12.582Z,-85
2023-04-15T08:46:16.879Z,-84
2023-04-15T08:47:22.997Z,-85
2023-04-15T08:48:30.693Z,-84
2023-04-15T08:49:34.161Z,-85
2023-04-15T08:50:37.042Z,-85
2023-04-15T08:51:44.136Z,-85
2023-04-15T08:52:47.138Z,-84
2023-04-15T08:53:51.400Z,-84
2023-04-15T08:54:58.105Z,-84
2023-04-15T08:56:07.158Z,-85
2023-04-15T08:57:10.033Z,-85
2023-04-15T08:58:17.018Z,-85
2023-04-15T08:59:20.522Z,-85
2023-04-15T09:00:24.775Z,-85
2023-04-15T09:01:28.237Z,-84
2023-04-15T09:02:31.319Z,-84
2023-04-15T09:03:34.981Z,-84
2023-04-15T09:04:37.881Z,-85
2023-04-15T09:05:40.736Z,-85
2023-04-15T09:06:43.677Z,-84
2023-04-15T09:07:46.600Z,-84
2023-04-15T09:08:49.671Z,-84
2023-04-15T09:09:53.571Z,-84
2023-04-15T09:10:56.464Z,-85
2023-04-15T09:11:59.521Z,-85
2023-04-15T09:13:03.393Z,-85
2023-04-15T09:14:06.424Z,-87
2023-04-15T09:15:12.391Z,-85
2023-04-15T09:16:15.717Z,-84
2023-04-15T09:17:25.982Z,-84
2023-04-15T09:18:33.603Z,-84
2023-04-15T09:19:36.438Z,-85
2023-04-15T09:20:43.940Z,-85
2023-04-15T09:21:49.203Z,-86
2023-04-15T09:22:53.201Z,-84
2023-04-15T09:24:01.568Z,-85
2023-04-15T09:25:05.280Z,-85
2023-04-15T09:26:08.999Z,-84
2023-04-15T09:27:12.487Z,-84
2023-04-15T09:28:15.347Z,-84
2023-04-15T09:29:19.822Z,-85
2023-04-15T09:30:22.683Z,-85
2023-04-15T09:31:31.636Z,-85
2023-04-15T09:32:34.491Z,-86
2023-04-15T09:33:37.572Z,-85
2023-04-15T09:34:40.690Z,-85
2023-04-15T09:35:43.664Z,-85
2023-04-15T09:36:51.141Z,-85
2023-04-15T09:37:55.058Z,-85
2023-04-15T09:39:02.311Z,-85
2023-04-15T09:40:05.500Z,-85
2023-04-15T09:41:20.929Z,-87
2023-04-15T09:42:27.987Z,-85
2023-04-15T09:43:41.687Z,-85
2023-04-15T09:44:45.381Z,-85
2023-04-15T09:45:55.427Z,-85
2023-04-15T09:46:58.232Z,-85
2023-04-15T09:48:16.413Z,-85
2023-04-15T09:49:19.334Z,-85
2023-04-15T09:50:22.645Z,-86
2023-04-15T09:51:36.466Z,-86
2023-04-15T09:52:44.694Z,-85
2023-04-15T09:53:47.634Z,-86
2023-04-15T09:54:54.280Z,-86
2023-04-15T09:55:58.954Z,-84
2023-04-15T09:57:10.529Z,-85
2023-04-15T09:58:23.705Z,-85
2023-04-15T09:59:26.576Z,-85
2023-04-15T10:00:32.167Z,-85
2023-04-15T10:01:35.862Z,-85
2023-04-15T10:02:41.101Z,-85
2023-04-15T10:03:44.913Z,-85
2023-04-15T10:04:49.967Z,-85
2023-04-15T10:05:55.291Z,-85
2023-04-15T10:06:59.005Z,-85
2023-04-15T10:08:03.772Z,-85
2023-04-15T10:09:07.917Z,-86
2023-04-15T10:10:12.905Z,-85
2023-04-15T10:11:16.045Z,-85
2023-04-15T10:12:20.202Z,-85
2023-04-15T10:13:26.416Z,-85
2023-04-15T10:14:33.992Z,-85
2023-04-15T10:15:37.174Z,-85
2023-04-15T10:16:45.648Z,-85
2023-04-15T10:17:50.155Z,-85
2023-04-15T10:18:56.986Z,-85
2023-04-15T10:20:03.420Z,-84
2023-04-15T10:21:07.396Z,-85
2023-04-15T10:22:10.621Z,-84
2023-04-15T10:23:13.948Z,-84
2023-04-15T10:24:17.819Z,-84
2023-04-15T10:25:21.350Z,-84
2023-04-15T10:26:24.691Z,-85
2023-04-15T10:27:29.192Z,-84
2023-04-15T10:28:32.269Z,-85
2023-04-15T10:29:35.896Z,-86
2023-04-15T10:30:39.607Z,-85
2023-04-15T10:31:43.038Z,-84
2023-04-15T10:32:47.255Z,-85
2023-04-15T10:33:52.181Z,-84
2023-04-15T10:34:55.948Z,-85
2023-04-15T10:35:59.390Z,-86
2023-04-15T10:37:05.127Z,-85
2023-04-15T10:38:35.995Z,-85
2023-04-15T10:39:38.824Z,-85
2023-04-15T10:40:41.868Z,-85
2023-04-15T10:41:44.774Z,-85
2023-04-15T10:42:48.612Z,-85
2023-04-15T10:43:54.628Z,-85
2023-04-15T10:44:58.443Z,-85
2023-04-15T10:46:01.469Z,-85
2023-04-15T10:47:11.906Z,-85
2023-04-15T10:48:17.901Z,-85
2023-04-15T10:49:27.456Z,-85
2023-04-15T10:50:32.145Z,-85
2023-04-15T10:51:35.081Z,-85
2023-04-15T10:52:42.981Z,-84
2023-04-15T10:53:45.824Z,-82
2023-04-15T10:54:48.909Z,-85
2023-04-15T10:55:52.555Z,-84
2023-04-15T10:57:02.920Z,-84
2023-04-15T10:58:05.917Z,-84
2023-04-15T10:59:08.785Z,-85
2023-04-15T11:00:14.245Z,-84
2023-04-15T11:01:17.323Z,-85
2023-04-15T11:02:20.255Z,-84
2023-04-15T11:03:44.214Z,-85
2023-04-15T11:05:00.204Z,-85
2023-04-15T11:06:03.309Z,-85
2023-04-15T11:07:09.127Z,-85
2023-04-15T11:08:12.968Z,-85
2023-04-15T11:09:33.742Z,-84
2023-04-15T11:10:36.675Z,-85
2023-04-15T11:12:11.123Z,-86
2023-04-15T11:13:18.465Z,-85
2023-04-15T11:14:21.380Z,-83
2023-04-15T11:15:39.217Z,-87
2023-04-15T11:16:46.262Z,-86
2023-04-15T11:17:49.321Z,-85
2023-04-15T11:18:57.122Z,-85
2023-04-15T11:20:00.160Z,-86
2023-04-15T11:21:06.223Z,-85
2023-04-15T11:22:10.617Z,-86
2023-04-15T11:23:15.015Z,-85
2023-04-15T11:24:30.370Z,-86
2023-04-15T11:25:35.725Z,-86
2023-04-15T11:26:39.394Z,-85
2023-04-15T11:27:42.309Z,-86
2023-04-15T11:28:47.113Z,-84
2023-04-15T11:29:50.044Z,-85
2023-04-15T11:30:55.664Z,-86
2023-04-15T11:32:10.473Z,-85
2023-04-15T11:33:15.114Z,-86
2023-04-15T11:34:24.307Z,-85
2023-04-15T11:35:27.279Z,-86
2023-04-15T11:36:31.593Z,-85
2023-04-15T11:37:34.972Z,-86
2023-04-15T11:38:39.354Z,-86
2023-04-15T11:39:44.183Z,-86
2023-04-15T11:40:47.746Z,-86
2023-04-15T11:41:50.630Z,-86
2023-04-15T11:43:10.016Z,-86
2023-04-15T11:44:20.099Z,-87
2023-04-15T11:45:23.049Z,-87
2023-04-15T11:46:33.000Z,-86
2023-04-15T11:47:35.866Z,-87
2023-04-15T11:48:43.126Z,-86
2023-04-15T11:49:46.029Z,-87
2023-04-15T11:50:56.192Z,-87
2023-04-15T11:51:59.252Z,-87
2023-04-15T11:53:06.913Z,-87
2023-04-15T11:54:11.168Z,-85
2023-04-15T11:55:14.140Z,-86
2023-04-15T11:56:22.463Z,-85
2023-04-15T11:57:33.202Z,-86
2023-04-15T11:58:41.000Z,-86
2023-04-15T11:59:46.090Z,-86
2023-04-15T12:00:52.046Z,-87
2023-04-15T12:01:55.377Z,-87
2023-04-15T12:03:25.098Z,-86
2023-04-15T12:04:28.408Z,-87
2023-04-15T12:05:31.921Z,-86
2023-04-15T12:06:38.611Z,-86
2023-04-15T12:08:01.367Z,-86
2023-04-15T12:09:21.528Z,-83
2023-04-15T12:10:26.996Z,-82
2023-04-15T12:11:35.818Z,-83
2023-04-15T12:12:39.019Z,-82
2023-04-15T12:13:51.946Z,-83
2023-04-15T12:14:55.120Z,-82
2023-04-15T12:15:58.124Z,-82
2023-04-15T12:17:06.125Z,-82
2023-04-15T12:18:18.891Z,-81
2023-04-15T12:19:27.759Z,-81
2023-04-15T12:20:32.667Z,-82
2023-04-15T12:21:39.425Z,-80
2023-04-15T12:22:42.474Z,-81
2023-04-15T12:23:56.381Z,-81
2023-04-15T12:24:59.570Z,-82
2023-04-15T12:26:06.773Z,-84
2023-04-15T12:27:12.197Z,-82
2023-04-15T12:28:15.047Z,-83
2023-04-15T12:29:18.944Z,-82
2023-04-15T12:30:21.774Z,-82
2023-04-15T12:31:25.095Z,-83
2023-04-15T12:32:28.633Z,-83
2023-04-15T12:33:35.155Z,-83
2023-04-15T12:34:50.553Z,-83
2023-04-15T12:35:53.388Z,-82
2023-04-15T12:36:56.996Z,-83
2023-04-15T12:37:59.811Z,-84
2023-04-15T12:39:02.878Z,-83
2023-04-15T12:40:09.982Z,-83
2023-04-15T12:41:12.872Z,-83
2023-04-15T12:42:17.098Z,-83
2023-04-15T12:43:20.453Z,-82
2023-04-15T12:44:26.365Z,-82
2023-04-15T12:45:29.968Z,-83
2023-04-15T12:46:32.953Z,-83
2023-04-15T12:47:35.881Z,-83
2023-04-15T12:48:39.167Z,-82
2023-04-15T12:49:42.643Z,-83
2023-04-15T12:50:45.484Z,-83
2023-04-15T12:51:52.881Z,-83
2023-04-15T12:52:55.924Z,-83
2023-04-15T12:53:59.798Z,-82
2023-04-15T12:55:03.058Z,-83
2023-04-15T12:56:06.066Z,-82
2023-04-15T12:57:08.931Z,-83
2023-04-15T12:58:13.076Z,-83
2023-04-15T12:59:17.363Z,-82
2023-04-15T13:00:20.366Z,-82
2023-04-15T13:01:23.327Z,-83
2023-04-15T13:02:28.417Z,-83
2023-04-15T13:03:31.659Z,-83
2023-04-15T13:04:34.813Z,-83
2023-04-15T13:05:38.554Z,-82
2023-04-15T13:06:41.588Z,-83
2023-04-15T13:07:44.430Z,-82
2023-04-15T13:08:57.330Z,-83
2023-04-15T13:10:00.965Z,-82
2023-04-15T13:11:03.899Z,-83
2023-04-15T13:12:07.060Z,-82
2023-04-15T13:13:10.337Z,-83
2023-04-15T13:14:14.216Z,-83
2023-04-15T13:15:17.335Z,-83
2023-04-15T13:16:20.716Z,-82
2023-04-15T13:17:23.615Z,-84
2023-04-15T13:18:26.592Z,-83
2023-04-15T13:19:29.475Z,-83
2023-04-15T13:20:32.629Z,-83
2023-04-15T13:21:36.673Z,-83
2023-04-15T13:22:39.539Z,-82
2023-04-15T13:23:45.135Z,-83
2023-04-15T13:24:47.966Z,-83
2023-04-15T13:25:50.810Z,-82
2023-04-15T13:26:54.774Z,-83
2023-04-15T13:27:58.866Z,-82
2023-04-15T13:29:02.685Z,-83
2023-04-15T13:30:07.236Z,-82
2023-04-15T13:31:11.668Z,-83
2023-04-15T13:32:14.493Z,-83
2023-04-15T13:33:18.618Z,-83
2023-04-15T13:34:21.590Z,-83
2023-04-15T13:35:24.542Z,-83
2023-04-15T13:36:28.594Z,-83
2023-04-15T13:37:32.513Z,-82
2023-04-15T13:38:35.362Z,-83
2023-04-15T13:39:38.243Z,-83
2023-04-15T13:40:41.098Z,-83
2023-04-15T13:41:44.023Z,-83
2023-04-15T13:42:47.142Z,-83
2023-04-15T13:43:50.006Z,-83
2023-04-15T13:44:53.008Z,-83
2023-04-15T13:45:55.996Z,-83
2023-04-15T13:46:59.424Z,-82
2023-04-15T13:48:02.407Z,-83
2023-04-15T13:49:05.326Z,-82
2023-04-15T13:50:08.760Z,-82
2023-04-15T13:51:11.756Z,-82
2023-04-15T13:52:14.880Z,-82
2023-04-15T13:53:17.749Z,-82
2023-04-15T13:54:20.660Z,-82
2023-04-15T13:55:26.109Z,-82
2023-04-15T13:56:32.640Z,-82
2023-04-15T13:57:36.173Z,-82
2023-04-15T13:58:39.623Z,-83
2023-04-15T13:59:42.596Z,-83
2023-04-15T14:00:45.518Z,-82
2023-04-15T14:01:48.650Z,-83
2023-04-15T14:02:51.895Z,-82
2023-04-15T14:03:55.087Z,-82
2023-04-15T14:04:58.054Z,-83
2023-04-15T14:06:01.076Z,-82
2023-04-15T14:07:05.303Z,-82
2023-04-15T14:08:08.484Z,-83
2023-04-15T14:09:11.935Z,-82
2023-04-15T14:10:14.831Z,-82
2023-04-15T14:11:17.718Z,-83
2023-04-15T14:12:20.652Z,-83
2023-04-15T14:13:23.828Z,-82
2023-04-15T14:14:26.855Z,-83
2023-04-15T14:15:29.736Z,-83
2023-04-15T14:16:34.935Z,-82
2023-04-15T14:17:38.039Z,-83
2023-04-15T14:18:41.827Z,-83
2023-04-15T14:19:44.677Z,-82
2023-04-15T14:20:47.786Z,-83
2023-04-15T14:21:50.628Z,-83
2023-04-15T14:22:53.599Z,-82
2023-04-15T14:23:56.441Z,-83
2023-04-15T14:24:59.337Z,-83
2023-04-15T14:26:02.280Z,-83
2023-04-15T14:27:05.508Z,-82
2023-04-15T14:28:08.698Z,-83
2023-04-15T14:29:11.796Z,-82
2023-04-15T14:30:14.901Z,-83
2023-04-15T14:31:17.956Z,-83
2023-04-15T14:32:21.076Z,-83
2023-04-15T14:33:24.418Z,-82
2023-04-15T14:34:27.325Z,-83
2023-04-15T14:35:30.199Z,-82
2023-04-15T14:36:33.602Z,-82
2023-04-15T14:37:36.438Z,-82
2023-04-15T14:38:42.412Z,-83
2023-04-15T14:39:45.297Z,-83
2023-04-15T14:40:48.275Z,-85
2023-04-15T14:41:51.203Z,-82
2023-04-15T14:42:54.226Z,-86
2023-04-15T14:43:57.961Z,-87